sensor_id;sensor_type;location;lat;lon;timestamp;temperature;humidity
12845;DHT22;68700;48.534;9.196;2023-07-31T00:00:46;13.40;99.90
12845;DHT22;68700;48.534;9.196;2023-07-31T00:04:08;13.40;99.90
12845;DHT22;68700;48.534;9.196;2023-07-31T00:07:31;13.40;99.90
12845;DHT22;68700;48.534;9.196;2023-07-31T00:11:06;13.40;98.60
12845;DHT22;68700;48.534;9.196;2023-07-31T00:14:28;13.30;99.90
12845;DHT22;68700;48.534;9.196;2023-07-31T00:17:50;13.40;80.00
12845;DHT22;68700;48.534;9.196;2023-07-31T00:21:12;13.40;54.20
12845;DHT22;68700;48.534;9.196;2023-07-31T00:24:33;13.40;56.50
12845;DHT22;68700;48.534;9.196;2023-07-31T00:27:57;13.40;47.80
12845;DHT22;68700;48.534;9.196;2023-07-31T00:31:18;13.40;40.60
12845;DHT22;68700;48.534;9.196;2023-07-31T00:34:40;13.40;35.70
12845;DHT22;68700;48.534;9.196;2023-07-31T00:38:02;13.30;55.80
12845;DHT22;68700;48.534;9.196;2023-07-31T00:41:24;13.30;86.40
12845;DHT22;68700;48.534;9.196;2023-07-31T00:44:47;13.30;67.20
12845;DHT22;68700;48.534;9.196;2023-07-31T00:48:09;13.20;70.40
12845;DHT22;68700;48.534;9.196;2023-07-31T00:51:32;13.20;94.10
12845;DHT22;68700;48.534;9.196;2023-07-31T00:54:53;13.10;99.90
12845;DHT22;68700;48.534;9.196;2023-07-31T00:58:15;13.00;99.90
12845;DHT22;68700;48.534;9.196;2023-07-31T01:01:39;13.00;99.90
12845;DHT22;68700;48.534;9.196;2023-07-31T01:05:02;12.90;99.90
12845;DHT22;68700;48.534;9.196;2023-07-31T01:08:30;12.90;99.90
12845;DHT22;68700;48.534;9.196;2023-07-31T01:11:57;12.90;99.90
12845;DHT22;68700;48.534;9.196;2023-07-31T01:15:21;12.80;99.90
12845;DHT22;68700;48.534;9.196;2023-07-31T01:18:44;12.80;99.90
12845;DHT22;68700;48.534;9.196;2023-07-31T01:22:21;12.70;99.90
12845;DHT22;68700;48.534;9.196;2023-07-31T01:25:54;12.70;99.90
12845;DHT22;68700;48.534;9.196;2023-07-31T01:29:25;12.70;99.90
12845;DHT22;68700;48.534;9.196;2023-07-31T01:32:48;12.60;99.90
12845;DHT22;68700;48.534;9.196;2023-07-31T01:36:11;12.60;99.90
12845;DHT22;68700;48.534;9.196;2023-07-31T01:39:33;12.60;99.90
12845;DHT22;68700;48.534;9.196;2023-07-31T01:42:56;12.60;99.90
12845;DHT22;68700;48.534;9.196;2023-07-31T01:46:18;12.60;99.90
12845;DHT22;68700;48.534;9.196;2023-07-31T01:49:40;12.70;99.90
12845;DHT22;68700;48.534;9.196;2023-07-31T01:53:02;12.70;99.90
12845;DHT22;68700;48.534;9.196;2023-07-31T01:56:23;12.70;99.90
12845;DHT22;68700;48.534;9.196;2023-07-31T01:59:46;12.70;99.90
12845;DHT22;68700;48.534;9.196;2023-07-31T02:03:08;12.70;93.80
12845;DHT22;68700;48.534;9.196;2023-07-31T02:06:30;12.70;98.20
12845;DHT22;68700;48.534;9.196;2023-07-31T02:09:52;12.70;84.80
12845;DHT22;68700;48.534;9.196;2023-07-31T02:13:14;12.70;90.50
12845;DHT22;68700;48.534;9.196;2023-07-31T02:16:37;12.70;97.20
12845;DHT22;68700;48.534;9.196;2023-07-31T02:19:59;12.70;99.90
12845;DHT22;68700;48.534;9.196;2023-07-31T02:23:21;12.70;84.20
12845;DHT22;68700;48.534;9.196;2023-07-31T02:26:43;12.70;70.80
12845;DHT22;68700;48.534;9.196;2023-07-31T02:30:06;12.80;66.20
12845;DHT22;68700;48.534;9.196;2023-07-31T02:33:29;12.80;53.80
12845;DHT22;68700;48.534;9.196;2023-07-31T02:36:51;12.80;54.00
12845;DHT22;68700;48.534;9.196;2023-07-31T02:40:13;12.80;58.40
12845;DHT22;68700;48.534;9.196;2023-07-31T02:43:35;12.70;59.10
12845;DHT22;68700;48.534;9.196;2023-07-31T02:46:56;12.70;72.60
12845;DHT22;68700;48.534;9.196;2023-07-31T02:50:19;12.70;73.20
12845;DHT22;68700;48.534;9.196;2023-07-31T02:53:41;12.70;89.10
12845;DHT22;68700;48.534;9.196;2023-07-31T02:57:04;12.70;97.80
12845;DHT22;68700;48.534;9.196;2023-07-31T03:00:26;12.60;85.30
12845;DHT22;68700;48.534;9.196;2023-07-31T03:03:47;12.50;99.90
12845;DHT22;68700;48.534;9.196;2023-07-31T03:07:10;12.40;99.90
12845;DHT22;68700;48.534;9.196;2023-07-31T03:10:32;12.30;99.90
12845;DHT22;68700;48.534;9.196;2023-07-31T03:13:54;12.20;99.90
12845;DHT22;68700;48.534;9.196;2023-07-31T03:17:16;12.20;99.90
12845;DHT22;68700;48.534;9.196;2023-07-31T03:20:42;12.10;99.90
12845;DHT22;68700;48.534;9.196;2023-07-31T03:24:05;12.10;99.90
12845;DHT22;68700;48.534;9.196;2023-07-31T03:27:27;12.10;99.90
12845;DHT22;68700;48.534;9.196;2023-07-31T03:30:49;12.10;99.90
12845;DHT22;68700;48.534;9.196;2023-07-31T03:34:10;12.10;99.90
12845;DHT22;68700;48.534;9.196;2023-07-31T03:37:32;12.10;99.90
12845;DHT22;68700;48.534;9.196;2023-07-31T03:40:55;12.20;99.90
12845;DHT22;68700;48.534;9.196;2023-07-31T03:44:19;12.10;99.90
12845;DHT22;68700;48.534;9.196;2023-07-31T03:47:41;12.20;99.90
12845;DHT22;68700;48.534;9.196;2023-07-31T03:51:02;12.10;99.90
12845;DHT22;68700;48.534;9.196;2023-07-31T03:54:24;12.10;99.90
12845;DHT22;68700;48.534;9.196;2023-07-31T03:57:47;12.10;99.90
12845;DHT22;68700;48.534;9.196;2023-07-31T04:01:09;12.20;99.90
12845;DHT22;68700;48.534;9.196;2023-07-31T04:04:31;12.10;99.90
12845;DHT22;68700;48.534;9.196;2023-07-31T04:07:53;12.20;99.90
12845;DHT22;68700;48.534;9.196;2023-07-31T04:11:15;12.20;99.90
12845;DHT22;68700;48.534;9.196;2023-07-31T04:14:38;12.20;99.90
12845;DHT22;68700;48.534;9.196;2023-07-31T04:18:00;12.20;99.90
12845;DHT22;68700;48.534;9.196;2023-07-31T04:21:22;12.30;99.90
12845;DHT22;68700;48.534;9.196;2023-07-31T04:24:43;12.40;99.90
12845;DHT22;68700;48.534;9.196;2023-07-31T04:28:05;12.40;99.90
12845;DHT22;68700;48.534;9.196;2023-07-31T04:31:29;12.50;99.90
12845;DHT22;68700;48.534;9.196;2023-07-31T04:34:51;12.50;99.90
12845;DHT22;68700;48.534;9.196;2023-07-31T04:38:12;12.60;99.90
12845;DHT22;68700;48.534;9.196;2023-07-31T04:41:34;12.70;99.90
12845;DHT22;68700;48.534;9.196;2023-07-31T04:44:56;12.80;99.90
12845;DHT22;68700;48.534;9.196;2023-07-31T04:48:19;12.80;99.90
12845;DHT22;68700;48.534;9.196;2023-07-31T04:51:41;12.90;99.90
12845;DHT22;68700;48.534;9.196;2023-07-31T04:55:03;13.00;99.90
12845;DHT22;68700;48.534;9.196;2023-07-31T04:58:25;13.20;99.90
12845;DHT22;68700;48.534;9.196;2023-07-31T05:01:47;13.30;99.90
12845;DHT22;68700;48.534;9.196;2023-07-31T05:05:10;13.40;98.00
12845;DHT22;68700;48.534;9.196;2023-07-31T05:08:32;13.50;95.90
12845;DHT22;68700;48.534;9.196;2023-07-31T05:11:54;13.60;99.90
12845;DHT22;68700;48.534;9.196;2023-07-31T05:15:16;13.70;96.50
12845;DHT22;68700;48.534;9.196;2023-07-31T05:18:37;13.80;88.30
12845;DHT22;68700;48.534;9.196;2023-07-31T05:22:00;13.90;79.70
12845;DHT22;68700;48.534;9.196;2023-07-31T05:25:25;13.90;59.80
12845;DHT22;68700;48.534;9.196;2023-07-31T05:28:46;14.00;54.70
12845;DHT22;68700;48.534;9.196;2023-07-31T05:32:09;14.10;24.20
12845;DHT22;68700;48.534;9.196;2023-07-31T05:35:30;14.20;19.50
12845;DHT22;68700;48.534;9.196;2023-07-31T05:38:54;14.40;19.80
12845;DHT22;68700;48.534;9.196;2023-07-31T05:42:15;14.60;12.10
12845;DHT22;68700;48.534;9.196;2023-07-31T05:45:37;14.80;1.00
12845;DHT22;68700;48.534;9.196;2023-07-31T05:49:00;15.00;1.00
12845;DHT22;68700;48.534;9.196;2023-07-31T05:52:22;15.10;1.00
12845;DHT22;68700;48.534;9.196;2023-07-31T05:55:45;15.10;1.00
12845;DHT22;68700;48.534;9.196;2023-07-31T05:59:08;15.10;1.00
12845;DHT22;68700;48.534;9.196;2023-07-31T06:02:30;15.20;1.00
12845;DHT22;68700;48.534;9.196;2023-07-31T06:05:56;15.40;1.00
12845;DHT22;68700;48.534;9.196;2023-07-31T06:09:18;15.70;1.00
12845;DHT22;68700;48.534;9.196;2023-07-31T06:12:44;15.70;1.00
12845;DHT22;68700;48.534;9.196;2023-07-31T06:16:06;15.90;1.00
12845;DHT22;68700;48.534;9.196;2023-07-31T06:19:28;16.10;1.00
12845;DHT22;68700;48.534;9.196;2023-07-31T06:22:49;16.10;1.00
12845;DHT22;68700;48.534;9.196;2023-07-31T06:26:11;15.90;1.00
12845;DHT22;68700;48.534;9.196;2023-07-31T06:29:34;15.90;1.00
12845;DHT22;68700;48.534;9.196;2023-07-31T06:32:56;16.10;1.00
12845;DHT22;68700;48.534;9.196;2023-07-31T06:36:18;16.20;1.00
12845;DHT22;68700;48.534;9.196;2023-07-31T06:39:40;16.20;1.00
12845;DHT22;68700;48.534;9.196;2023-07-31T06:43:02;16.30;1.00
12845;DHT22;68700;48.534;9.196;2023-07-31T06:46:29;16.60;1.00
12845;DHT22;68700;48.534;9.196;2023-07-31T06:49:51;17.30;1.00
12845;DHT22;68700;48.534;9.196;2023-07-31T06:53:13;18.20;1.00
12845;DHT22;68700;48.534;9.196;2023-07-31T06:56:35;19.10;1.00
12845;DHT22;68700;48.534;9.196;2023-07-31T06:59:56;19.60;1.00
12845;DHT22;68700;48.534;9.196;2023-07-31T07:03:20;19.60;1.00
12845;DHT22;68700;48.534;9.196;2023-07-31T07:06:41;19.80;1.00
12845;DHT22;68700;48.534;9.196;2023-07-31T07:10:04;20.20;1.00
12845;DHT22;68700;48.534;9.196;2023-07-31T07:13:26;20.10;1.00
12845;DHT22;68700;48.534;9.196;2023-07-31T07:16:51;19.70;1.00
12845;DHT22;68700;48.534;9.196;2023-07-31T07:20:16;19.80;1.00
12845;DHT22;68700;48.534;9.196;2023-07-31T07:23:40;20.30;1.00
12845;DHT22;68700;48.534;9.196;2023-07-31T07:27:02;20.20;1.00
12845;DHT22;68700;48.534;9.196;2023-07-31T07:30:24;20.70;1.00
12845;DHT22;68700;48.534;9.196;2023-07-31T07:33:46;20.30;1.00
12845;DHT22;68700;48.534;9.196;2023-07-31T07:37:09;20.70;1.00
12845;DHT22;68700;48.534;9.196;2023-07-31T07:40:31;21.40;1.00
12845;DHT22;68700;48.534;9.196;2023-07-31T07:43:53;21.40;1.00
12845;DHT22;68700;48.534;9.196;2023-07-31T07:47:15;21.80;1.00
12845;DHT22;68700;48.534;9.196;2023-07-31T07:50:38;21.80;1.00
12845;DHT22;68700;48.534;9.196;2023-07-31T07:54:02;21.20;1.00
12845;DHT22;68700;48.534;9.196;2023-07-31T07:57:23;21.40;1.00
12845;DHT22;68700;48.534;9.196;2023-07-31T08:00:48;21.60;1.00
12845;DHT22;68700;48.534;9.196;2023-07-31T08:04:11;22.40;1.00
12845;DHT22;68700;48.534;9.196;2023-07-31T08:07:32;22.50;1.00
12845;DHT22;68700;48.534;9.196;2023-07-31T08:10:55;22.30;1.00
12845;DHT22;68700;48.534;9.196;2023-07-31T08:14:17;21.90;1.00
12845;DHT22;68700;48.534;9.196;2023-07-31T08:17:39;22.50;1.00
12845;DHT22;68700;48.534;9.196;2023-07-31T08:21:02;22.70;1.00
12845;DHT22;68700;48.534;9.196;2023-07-31T08:24:24;22.40;1.00
12845;DHT22;68700;48.534;9.196;2023-07-31T08:27:47;22.60;99.90
12845;DHT22;68700;48.534;9.196;2023-07-31T08:31:09;22.60;1.00
12845;DHT22;68700;48.534;9.196;2023-07-31T08:34:31;23.00;99.90
12845;DHT22;68700;48.534;9.196;2023-07-31T08:37:52;22.70;99.90
12845;DHT22;68700;48.534;9.196;2023-07-31T08:41:14;22.10;99.90
12845;DHT22;68700;48.534;9.196;2023-07-31T08:44:39;22.00;99.90
12845;DHT22;68700;48.534;9.196;2023-07-31T08:48:01;22.10;99.90
12845;DHT22;68700;48.534;9.196;2023-07-31T08:51:23;23.50;99.90
12845;DHT22;68700;48.534;9.196;2023-07-31T08:54:45;22.70;99.90
12845;DHT22;68700;48.534;9.196;2023-07-31T08:58:07;22.40;99.90
12845;DHT22;68700;48.534;9.196;2023-07-31T09:01:35;22.40;99.90
12845;DHT22;68700;48.534;9.196;2023-07-31T09:04:58;23.40;99.90
12845;DHT22;68700;48.534;9.196;2023-07-31T09:08:21;23.10;99.90
12845;DHT22;68700;48.534;9.196;2023-07-31T09:11:43;23.20;99.90
12845;DHT22;68700;48.534;9.196;2023-07-31T09:15:05;22.70;1.00
12845;DHT22;68700;48.534;9.196;2023-07-31T09:18:29;21.80;99.90
12845;DHT22;68700;48.534;9.196;2023-07-31T09:21:50;22.30;99.90
12845;DHT22;68700;48.534;9.196;2023-07-31T09:25:16;23.50;99.90
12845;DHT22;68700;48.534;9.196;2023-07-31T09:28:38;25.30;99.90
12845;DHT22;68700;48.534;9.196;2023-07-31T09:32:15;26.40;99.90
12845;DHT22;68700;48.534;9.196;2023-07-31T09:35:39;25.00;99.90
12845;DHT22;68700;48.534;9.196;2023-07-31T09:39:02;23.80;99.90
12845;DHT22;68700;48.534;9.196;2023-07-31T09:42:25;24.30;99.90
12845;DHT22;68700;48.534;9.196;2023-07-31T09:45:54;23.10;99.90
12845;DHT22;68700;48.534;9.196;2023-07-31T09:49:17;22.60;99.90
12845;DHT22;68700;48.534;9.196;2023-07-31T09:52:40;23.10;99.90
12845;DHT22;68700;48.534;9.196;2023-07-31T09:56:02;22.80;99.90
12845;DHT22;68700;48.534;9.196;2023-07-31T09:59:24;23.00;99.90
12845;DHT22;68700;48.534;9.196;2023-07-31T10:02:47;22.10;99.90
12845;DHT22;68700;48.534;9.196;2023-07-31T10:06:09;22.10;99.90
12845;DHT22;68700;48.534;9.196;2023-07-31T10:09:33;23.00;99.90
12845;DHT22;68700;48.534;9.196;2023-07-31T10:12:56;23.80;99.90
12845;DHT22;68700;48.534;9.196;2023-07-31T10:16:18;25.40;99.90
12845;DHT22;68700;48.534;9.196;2023-07-31T10:19:41;25.40;99.90
12845;DHT22;68700;48.534;9.196;2023-07-31T10:23:03;26.20;99.90
12845;DHT22;68700;48.534;9.196;2023-07-31T10:26:27;25.70;99.90
12845;DHT22;68700;48.534;9.196;2023-07-31T10:29:50;26.50;99.90
12845;DHT22;68700;48.534;9.196;2023-07-31T10:33:14;25.50;99.90
12845;DHT22;68700;48.534;9.196;2023-07-31T10:36:36;25.10;99.90
12845;DHT22;68700;48.534;9.196;2023-07-31T10:40:00;26.80;99.90
12845;DHT22;68700;48.534;9.196;2023-07-31T10:47:42;28.10;99.90
12845;DHT22;68700;48.534;9.196;2023-07-31T10:51:07;26.40;99.90
12845;DHT22;68700;48.534;9.196;2023-07-31T10:54:30;25.10;99.90
12845;DHT22;68700;48.534;9.196;2023-07-31T10:57:52;24.40;99.90
12845;DHT22;68700;48.534;9.196;2023-07-31T11:01:14;25.80;99.90
12845;DHT22;68700;48.534;9.196;2023-07-31T11:04:41;25.90;99.90
12845;DHT22;68700;48.534;9.196;2023-07-31T11:08:10;27.40;99.90
12845;DHT22;68700;48.534;9.196;2023-07-31T11:11:33;27.30;99.90
12845;DHT22;68700;48.534;9.196;2023-07-31T11:14:57;29.00;99.90
12845;DHT22;68700;48.534;9.196;2023-07-31T11:22:37;27.30;99.90
12845;DHT22;68700;48.534;9.196;2023-07-31T11:25:59;28.30;99.90
12845;DHT22;68700;48.534;9.196;2023-07-31T11:29:27;28.40;99.90
12845;DHT22;68700;48.534;9.196;2023-07-31T11:32:49;27.50;99.90
12845;DHT22;68700;48.534;9.196;2023-07-31T11:36:15;26.30;99.90
12845;DHT22;68700;48.534;9.196;2023-07-31T11:39:39;27.70;99.90
12845;DHT22;68700;48.534;9.196;2023-07-31T11:43:04;27.70;99.90
12845;DHT22;68700;48.534;9.196;2023-07-31T11:46:26;28.10;99.90
12845;DHT22;68700;48.534;9.196;2023-07-31T11:49:49;28.90;99.90
12845;DHT22;68700;48.534;9.196;2023-07-31T11:53:13;27.20;99.90
12845;DHT22;68700;48.534;9.196;2023-07-31T11:56:51;26.80;99.90
12845;DHT22;68700;48.534;9.196;2023-07-31T12:00:14;25.60;99.90
12845;DHT22;68700;48.534;9.196;2023-07-31T12:03:38;25.90;99.90
12845;DHT22;68700;48.534;9.196;2023-07-31T12:07:01;26.40;99.90
12845;DHT22;68700;48.534;9.196;2023-07-31T12:10:28;26.20;99.90
12845;DHT22;68700;48.534;9.196;2023-07-31T12:13:54;25.00;99.90
12845;DHT22;68700;48.534;9.196;2023-07-31T12:17:17;24.20;99.90
12845;DHT22;68700;48.534;9.196;2023-07-31T12:20:41;24.10;99.90
12845;DHT22;68700;48.534;9.196;2023-07-31T12:24:04;24.30;99.90
12845;DHT22;68700;48.534;9.196;2023-07-31T12:27:33;24.50;99.90
12845;DHT22;68700;48.534;9.196;2023-07-31T12:30:59;24.40;99.90
12845;DHT22;68700;48.534;9.196;2023-07-31T12:34:21;24.80;99.90
12845;DHT22;68700;48.534;9.196;2023-07-31T12:37:43;24.60;99.90
12845;DHT22;68700;48.534;9.196;2023-07-31T12:41:04;24.60;99.90
12845;DHT22;68700;48.534;9.196;2023-07-31T12:44:27;25.00;99.90
12845;DHT22;68700;48.534;9.196;2023-07-31T12:47:50;25.00;99.90
12845;DHT22;68700;48.534;9.196;2023-07-31T12:51:12;25.70;99.90
12845;DHT22;68700;48.534;9.196;2023-07-31T12:54:34;26.20;99.90
12845;DHT22;68700;48.534;9.196;2023-07-31T12:57:56;26.90;99.90
12845;DHT22;68700;48.534;9.196;2023-07-31T13:01:18;27.20;99.90
12845;DHT22;68700;48.534;9.196;2023-07-31T13:04:41;27.10;99.90
12845;DHT22;68700;48.534;9.196;2023-07-31T13:08:03;27.50;99.90
12845;DHT22;68700;48.534;9.196;2023-07-31T13:11:25;28.40;99.90
12845;DHT22;68700;48.534;9.196;2023-07-31T13:14:47;27.20;99.90
12845;DHT22;68700;48.534;9.196;2023-07-31T13:18:09;28.40;99.90
12845;DHT22;68700;48.534;9.196;2023-07-31T13:21:32;28.40;99.90
12845;DHT22;68700;48.534;9.196;2023-07-31T13:24:56;28.00;99.90
12845;DHT22;68700;48.534;9.196;2023-07-31T13:28:18;27.90;99.90
12845;DHT22;68700;48.534;9.196;2023-07-31T13:31:39;27.50;99.90
12845;DHT22;68700;48.534;9.196;2023-07-31T13:35:01;27.20;99.90
12845;DHT22;68700;48.534;9.196;2023-07-31T13:38:24;27.60;99.90
12845;DHT22;68700;48.534;9.196;2023-07-31T13:41:46;27.80;99.90
12845;DHT22;68700;48.534;9.196;2023-07-31T13:45:08;27.50;99.90
12845;DHT22;68700;48.534;9.196;2023-07-31T13:48:30;26.60;99.90
12845;DHT22;68700;48.534;9.196;2023-07-31T13:51:52;25.50;99.90
12845;DHT22;68700;48.534;9.196;2023-07-31T13:55:15;25.00;99.90
12845;DHT22;68700;48.534;9.196;2023-07-31T13:58:37;24.00;99.90
12845;DHT22;68700;48.534;9.196;2023-07-31T14:01:59;23.90;99.90
12845;DHT22;68700;48.534;9.196;2023-07-31T14:05:20;23.70;99.90
12845;DHT22;68700;48.534;9.196;2023-07-31T14:08:42;23.40;99.90
12845;DHT22;68700;48.534;9.196;2023-07-31T14:12:06;23.40;99.90
12845;DHT22;68700;48.534;9.196;2023-07-31T14:15:28;23.30;99.90
12845;DHT22;68700;48.534;9.196;2023-07-31T14:18:50;23.20;99.90
12845;DHT22;68700;48.534;9.196;2023-07-31T14:22:14;23.30;99.90
12845;DHT22;68700;48.534;9.196;2023-07-31T14:25:35;23.20;99.90
12845;DHT22;68700;48.534;9.196;2023-07-31T14:28:59;22.80;99.90
12845;DHT22;68700;48.534;9.196;2023-07-31T14:32:21;22.70;99.90
12845;DHT22;68700;48.534;9.196;2023-07-31T14:35:43;22.80;99.90
12845;DHT22;68700;48.534;9.196;2023-07-31T14:39:05;22.50;99.90
12845;DHT22;68700;48.534;9.196;2023-07-31T14:42:27;22.40;99.90
12845;DHT22;68700;48.534;9.196;2023-07-31T14:45:50;22.60;99.90
12845;DHT22;68700;48.534;9.196;2023-07-31T14:49:14;22.60;99.90
12845;DHT22;68700;48.534;9.196;2023-07-31T14:52:35;22.50;99.90
12845;DHT22;68700;48.534;9.196;2023-07-31T14:55:57;22.50;99.90
12845;DHT22;68700;48.534;9.196;2023-07-31T14:59:19;22.60;99.90
12845;DHT22;68700;48.534;9.196;2023-07-31T15:02:42;22.40;99.90
12845;DHT22;68700;48.534;9.196;2023-07-31T15:06:04;22.50;99.90
12845;DHT22;68700;48.534;9.196;2023-07-31T15:09:28;22.50;99.90
12845;DHT22;68700;48.534;9.196;2023-07-31T15:12:50;22.50;99.90
12845;DHT22;68700;48.534;9.196;2023-07-31T15:16:11;22.10;99.90
12845;DHT22;68700;48.534;9.196;2023-07-31T15:19:35;22.10;99.90
12845;DHT22;68700;48.534;9.196;2023-07-31T15:22:58;22.20;99.90
12845;DHT22;68700;48.534;9.196;2023-07-31T15:26:19;22.10;99.90
12845;DHT22;68700;48.534;9.196;2023-07-31T15:29:41;22.10;99.90
12845;DHT22;68700;48.534;9.196;2023-07-31T15:33:03;22.30;99.90
12845;DHT22;68700;48.534;9.196;2023-07-31T15:36:26;22.40;99.90
12845;DHT22;68700;48.534;9.196;2023-07-31T15:39:48;22.40;99.90
12845;DHT22;68700;48.534;9.196;2023-07-31T15:43:10;22.50;1.00
12845;DHT22;68700;48.534;9.196;2023-07-31T15:46:32;22.70;99.90
12845;DHT22;68700;48.534;9.196;2023-07-31T15:49:54;22.80;99.90
12845;DHT22;68700;48.534;9.196;2023-07-31T15:53:17;22.90;99.90
12845;DHT22;68700;48.534;9.196;2023-07-31T15:56:39;22.80;99.90
12845;DHT22;68700;48.534;9.196;2023-07-31T16:00:01;22.80;99.90
12845;DHT22;68700;48.534;9.196;2023-07-31T16:03:23;23.00;99.90
12845;DHT22;68700;48.534;9.196;2023-07-31T16:06:45;23.10;99.90
12845;DHT22;68700;48.534;9.196;2023-07-31T16:10:09;23.10;1.00
12845;DHT22;68700;48.534;9.196;2023-07-31T16:13:30;23.30;99.90
12845;DHT22;68700;48.534;9.196;2023-07-31T16:16:52;23.10;99.90
12845;DHT22;68700;48.534;9.196;2023-07-31T16:20:14;23.30;1.40
12845;DHT22;68700;48.534;9.196;2023-07-31T16:23:36;23.40;99.90
12845;DHT22;68700;48.534;9.196;2023-07-31T16:26:59;23.50;1.40
12845;DHT22;68700;48.534;9.196;2023-07-31T16:30:21;23.40;99.90
12845;DHT22;68700;48.534;9.196;2023-07-31T16:33:43;23.60;99.90
12845;DHT22;68700;48.534;9.196;2023-07-31T16:37:05;23.40;1.00
12845;DHT22;68700;48.534;9.196;2023-07-31T16:40:26;23.30;1.00
12845;DHT22;68700;48.534;9.196;2023-07-31T16:43:50;23.10;99.90
12845;DHT22;68700;48.534;9.196;2023-07-31T16:47:12;23.00;1.00
12845;DHT22;68700;48.534;9.196;2023-07-31T16:50:33;23.10;1.00
12845;DHT22;68700;48.534;9.196;2023-07-31T16:53:56;23.10;1.00
12845;DHT22;68700;48.534;9.196;2023-07-31T16:57:18;23.00;1.00
12845;DHT22;68700;48.534;9.196;2023-07-31T17:00:41;23.00;1.00
12845;DHT22;68700;48.534;9.196;2023-07-31T17:04:03;23.00;1.00
12845;DHT22;68700;48.534;9.196;2023-07-31T17:07:25;22.90;1.00
12845;DHT22;68700;48.534;9.196;2023-07-31T17:10:47;22.80;1.00
12845;DHT22;68700;48.534;9.196;2023-07-31T17:14:09;22.70;1.00
12845;DHT22;68700;48.534;9.196;2023-07-31T17:17:32;22.80;1.00
12845;DHT22;68700;48.534;9.196;2023-07-31T17:20:54;22.60;1.00
12845;DHT22;68700;48.534;9.196;2023-07-31T17:24:16;22.60;1.00
12845;DHT22;68700;48.534;9.196;2023-07-31T17:27:37;22.60;1.00
12845;DHT22;68700;48.534;9.196;2023-07-31T17:30:59;22.60;1.00
12845;DHT22;68700;48.534;9.196;2023-07-31T17:34:22;22.70;1.00
12845;DHT22;68700;48.534;9.196;2023-07-31T17:37:44;22.90;1.00
12845;DHT22;68700;48.534;9.196;2023-07-31T17:41:06;22.80;1.00
12845;DHT22;68700;48.534;9.196;2023-07-31T17:44:28;23.10;1.00
12845;DHT22;68700;48.534;9.196;2023-07-31T17:47:52;23.20;1.00
12845;DHT22;68700;48.534;9.196;2023-07-31T17:51:15;22.90;1.00
12845;DHT22;68700;48.534;9.196;2023-07-31T17:54:37;22.50;1.00
12845;DHT22;68700;48.534;9.196;2023-07-31T17:57:58;22.40;1.00
12845;DHT22;68700;48.534;9.196;2023-07-31T18:01:28;22.40;1.00
12845;DHT22;68700;48.534;9.196;2023-07-31T18:04:50;22.40;1.00
12845;DHT22;68700;48.534;9.196;2023-07-31T18:08:12;22.30;1.00
12845;DHT22;68700;48.534;9.196;2023-07-31T18:11:34;22.20;1.00
12845;DHT22;68700;48.534;9.196;2023-07-31T18:14:55;22.10;1.00
12845;DHT22;68700;48.534;9.196;2023-07-31T18:18:19;22.00;1.00
12845;DHT22;68700;48.534;9.196;2023-07-31T18:21:40;21.90;1.00
12845;DHT22;68700;48.534;9.196;2023-07-31T18:25:02;21.90;1.00
12845;DHT22;68700;48.534;9.196;2023-07-31T18:28:24;21.80;1.00
12845;DHT22;68700;48.534;9.196;2023-07-31T18:31:46;21.70;1.00
12845;DHT22;68700;48.534;9.196;2023-07-31T18:35:09;21.70;1.00
12845;DHT22;68700;48.534;9.196;2023-07-31T18:38:31;21.60;1.00
12845;DHT22;68700;48.534;9.196;2023-07-31T18:41:53;21.60;1.00
12845;DHT22;68700;48.534;9.196;2023-07-31T18:45:15;21.50;1.00
12845;DHT22;68700;48.534;9.196;2023-07-31T18:48:37;21.30;1.00
12845;DHT22;68700;48.534;9.196;2023-07-31T18:52:00;21.10;1.00
12845;DHT22;68700;48.534;9.196;2023-07-31T18:55:22;20.90;1.00
12845;DHT22;68700;48.534;9.196;2023-07-31T18:58:46;20.60;1.00
12845;DHT22;68700;48.534;9.196;2023-07-31T19:02:09;20.30;1.00
12845;DHT22;68700;48.534;9.196;2023-07-31T19:05:31;20.10;1.00
12845;DHT22;68700;48.534;9.196;2023-07-31T19:08:54;20.00;1.00
12845;DHT22;68700;48.534;9.196;2023-07-31T19:12:16;19.90;1.00
12845;DHT22;68700;48.534;9.196;2023-07-31T19:15:38;19.80;1.00
12845;DHT22;68700;48.534;9.196;2023-07-31T19:19:00;19.70;1.00
12845;DHT22;68700;48.534;9.196;2023-07-31T19:22:22;19.60;1.00
12845;DHT22;68700;48.534;9.196;2023-07-31T19:25:45;19.50;19.40
12845;DHT22;68700;48.534;9.196;2023-07-31T19:29:07;19.30;11.20
12845;DHT22;68700;48.534;9.196;2023-07-31T19:32:30;19.20;1.00
12845;DHT22;68700;48.534;9.196;2023-07-31T19:35:53;19.20;1.00
12845;DHT22;68700;48.534;9.196;2023-07-31T19:39:15;19.10;1.00
12845;DHT22;68700;48.534;9.196;2023-07-31T19:42:39;19.10;1.00
12845;DHT22;68700;48.534;9.196;2023-07-31T19:46:01;19.00;1.00
12845;DHT22;68700;48.534;9.196;2023-07-31T19:49:23;19.00;19.60
12845;DHT22;68700;48.534;9.196;2023-07-31T19:52:44;18.90;8.20
12845;DHT22;68700;48.534;9.196;2023-07-31T19:56:07;18.90;76.40
12845;DHT22;68700;48.534;9.196;2023-07-31T19:59:30;18.80;99.90
12845;DHT22;68700;48.534;9.196;2023-07-31T20:02:52;18.80;99.90
12845;DHT22;68700;48.534;9.196;2023-07-31T20:06:13;18.70;99.90
12845;DHT22;68700;48.534;9.196;2023-07-31T20:09:35;18.70;99.90
12845;DHT22;68700;48.534;9.196;2023-07-31T20:12:57;18.50;99.90
12845;DHT22;68700;48.534;9.196;2023-07-31T20:16:20;18.40;99.90
12845;DHT22;68700;48.534;9.196;2023-07-31T20:19:42;18.40;99.90
12845;DHT22;68700;48.534;9.196;2023-07-31T20:23:04;18.40;99.90
12845;DHT22;68700;48.534;9.196;2023-07-31T20:26:25;18.30;99.90
12845;DHT22;68700;48.534;9.196;2023-07-31T20:29:47;18.30;99.90
12845;DHT22;68700;48.534;9.196;2023-07-31T20:33:11;18.30;99.90
12845;DHT22;68700;48.534;9.196;2023-07-31T20:36:33;18.30;99.90
12845;DHT22;68700;48.534;9.196;2023-07-31T20:39:56;18.30;99.90
12845;DHT22;68700;48.534;9.196;2023-07-31T20:43:18;18.20;99.90
12845;DHT22;68700;48.534;9.196;2023-07-31T20:46:40;18.20;99.90
12845;DHT22;68700;48.534;9.196;2023-07-31T20:50:03;18.10;99.90
12845;DHT22;68700;48.534;9.196;2023-07-31T20:53:25;18.00;99.90
12845;DHT22;68700;48.534;9.196;2023-07-31T20:56:47;18.00;99.90
12845;DHT22;68700;48.534;9.196;2023-07-31T21:00:10;18.10;99.90
12845;DHT22;68700;48.534;9.196;2023-07-31T21:03:35;18.10;99.90
12845;DHT22;68700;48.534;9.196;2023-07-31T21:06:58;18.10;99.90
12845;DHT22;68700;48.534;9.196;2023-07-31T21:10:20;18.10;99.90
12845;DHT22;68700;48.534;9.196;2023-07-31T21:13:41;18.10;99.90
12845;DHT22;68700;48.534;9.196;2023-07-31T21:17:04;18.10;99.90
12845;DHT22;68700;48.534;9.196;2023-07-31T21:20:26;18.10;99.90
12845;DHT22;68700;48.534;9.196;2023-07-31T21:23:49;18.00;99.90
12845;DHT22;68700;48.534;9.196;2023-07-31T21:27:11;17.90;99.90
12845;DHT22;68700;48.534;9.196;2023-07-31T21:30:33;17.90;99.90
12845;DHT22;68700;48.534;9.196;2023-07-31T21:33:54;17.90;99.90